sensor_id;sensor_type;location;lat;lon;timestamp;pressure;altitude;pressure_sealevel;temperature;humidity
74960;BME280;63518;49.572;1.106;2022-12-05T00:00:15;99657.53;;;3.14;75.49
74960;BME280;63518;49.572;1.106;2022-12-05T00:02:48;99640.19;;;3.15;75.83
74960;BME280;63518;49.572;1.106;2022-12-05T00:05:15;99645.84;;;2.95;75.34
74960;BME280;63518;49.572;1.106;2022-12-05T00:07:42;99644.25;;;3.05;75.97
74960;BME280;63518;49.572;1.106;2022-12-05T00:10:18;99643.88;;;3.20;74.72
74960;BME280;63518;49.572;1.106;2022-12-05T00:12:47;99647.25;;;3.16;75.84
74960;BME280;63518;49.572;1.106;2022-12-05T00:15:19;99650.38;;;3.19;74.89
74960;BME280;63518;49.572;1.106;2022-12-05T00:17:49;99655.00;;;3.00;74.74
74960;BME280;63518;49.572;1.106;2022-12-05T00:20:19;99663.13;;;3.19;75.18
74960;BME280;63518;49.572;1.106;2022-12-05T00:22:46;99662.91;;;3.20;74.70
74960;BME280;63518;49.572;1.106;2022-12-05T00:25:13;99660.25;;;3.32;74.12
74960;BME280;63518;49.572;1.106;2022-12-05T00:27:43;99666.66;;;3.56;73.83
74960;BME280;63518;49.572;1.106;2022-12-05T00:30:16;99670.38;;;3.25;73.97
74960;BME280;63518;49.572;1.106;2022-12-05T00:32:54;99673.44;;;3.47;74.41
74960;BME280;63518;49.572;1.106;2022-12-05T00:35:21;99673.75;;;3.20;74.59
74960;BME280;63518;49.572;1.106;2022-12-05T00:37:50;99667.63;;;3.43;73.93
74960;BME280;63518;49.572;1.106;2022-12-05T00:40:18;99657.81;;;3.24;74.64
74960;BME280;63518;49.572;1.106;2022-12-05T00:42:50;99680.41;;;3.43;73.57
74960;BME280;63518;49.572;1.106;2022-12-05T00:45:18;99671.19;;;3.07;74.99
74960;BME280;63518;49.572;1.106;2022-12-05T00:47:45;99668.38;;;2.77;75.38
74960;BME280;63518;49.572;1.106;2022-12-05T00:50:12;99677.44;;;2.89;75.53
74960;BME280;63518;49.572;1.106;2022-12-05T00:52:39;99661.88;;;3.51;74.61
74960;BME280;63518;49.572;1.106;2022-12-05T00:55:07;99672.47;;;3.23;74.85
74960;BME280;63518;49.572;1.106;2022-12-05T00:57:43;99657.63;;;3.25;74.46
74960;BME280;63518;49.572;1.106;2022-12-05T01:00:19;99669.41;;;3.01;75.55
74960;BME280;63518;49.572;1.106;2022-12-05T01:02:48;99669.75;;;2.86;76.23
74960;BME280;63518;49.572;1.106;2022-12-05T01:05:21;99665.91;;;3.12;75.01
74960;BME280;63518;49.572;1.106;2022-12-05T01:07:48;99665.22;;;2.98;75.03
74960;BME280;63518;49.572;1.106;2022-12-05T01:10:16;99672.56;;;3.16;74.78
74960;BME280;63518;49.572;1.106;2022-12-05T01:12:45;99670.41;;;3.55;73.99
74960;BME280;63518;49.572;1.106;2022-12-05T01:15:17;99669.91;;;3.28;74.58
74960;BME280;63518;49.572;1.106;2022-12-05T01:17:46;99667.16;;;3.46;74.28
74960;BME280;63518;49.572;1.106;2022-12-05T01:20:13;99687.66;;;3.49;74.06
74960;BME280;63518;49.572;1.106;2022-12-05T01:22:40;99669.44;;;3.31;74.73
74960;BME280;63518;49.572;1.106;2022-12-05T01:25:16;99671.22;;;3.55;74.34
74960;BME280;63518;49.572;1.106;2022-12-05T01:27:43;99673.47;;;3.28;74.12
74960;BME280;63518;49.572;1.106;2022-12-05T01:30:25;99665.69;;;3.14;74.69
74960;BME280;63518;49.572;1.106;2022-12-05T01:32:55;99680.53;;;3.29;74.94
74960;BME280;63518;49.572;1.106;2022-12-05T01:35:22;99691.25;;;3.61;73.00
74960;BME280;63518;49.572;1.106;2022-12-05T01:37:54;99682.38;;;3.35;74.03
74960;BME280;63518;49.572;1.106;2022-12-05T01:40:22;99674.88;;;3.49;74.30
74960;BME280;63518;49.572;1.106;2022-12-05T01:42:54;99686.91;;;3.42;73.29
74960;BME280;63518;49.572;1.106;2022-12-05T01:45:34;99687.22;;;3.82;72.05
74960;BME280;63518;49.572;1.106;2022-12-05T01:48:30;99689.19;;;3.75;72.33
74960;BME280;63518;49.572;1.106;2022-12-05T01:50:58;99707.41;;;3.74;73.99
74960;BME280;63518;49.572;1.106;2022-12-05T01:53:31;99700.00;;;3.63;72.37
74960;BME280;63518;49.572;1.106;2022-12-05T01:56:05;99715.59;;;3.56;73.73
74960;BME280;63518;49.572;1.106;2022-12-05T01:58:36;99706.06;;;3.47;73.81
74960;BME280;63518;49.572;1.106;2022-12-05T02:01:13;99710.03;;;3.81;72.18
74960;BME280;63518;49.572;1.106;2022-12-05T02:03:46;99702.72;;;3.63;73.38
74960;BME280;63518;49.572;1.106;2022-12-05T02:06:14;99714.84;;;3.97;73.08
74960;BME280;63518;49.572;1.106;2022-12-05T02:08:48;99713.16;;;3.29;75.42
74960;BME280;63518;49.572;1.106;2022-12-05T02:11:18;99713.44;;;3.03;76.18
74960;BME280;63518;49.572;1.106;2022-12-05T02:31:06;99713.25;;;2.79;76.46
74960;BME280;63518;49.572;1.106;2022-12-05T02:34:04;99730.16;;;2.57;77.76
74960;BME280;63518;49.572;1.106;2022-12-05T02:36:41;99717.13;;;2.90;75.58
74960;BME280;63518;49.572;1.106;2022-12-05T02:44:59;99709.91;;;2.52;78.33
74960;BME280;63518;49.572;1.106;2022-12-05T02:47:43;99716.59;;;3.00;76.76
74960;BME280;63518;49.572;1.106;2022-12-05T02:50:17;99714.97;;;2.24;78.51
74960;BME280;63518;49.572;1.106;2022-12-05T02:53:04;99713.22;;;2.61;77.66
74960;BME280;63518;49.572;1.106;2022-12-05T02:55:32;99716.13;;;2.85;76.92
74960;BME280;63518;49.572;1.106;2022-12-05T02:58:06;99703.25;;;2.55;77.21
74960;BME280;63518;49.572;1.106;2022-12-05T03:00:39;99724.44;;;2.90;76.79
74960;BME280;63518;49.572;1.106;2022-12-05T03:03:16;99723.06;;;3.42;74.81
74960;BME280;63518;49.572;1.106;2022-12-05T03:05:58;99732.31;;;3.53;73.39
74960;BME280;63518;49.572;1.106;2022-12-05T03:08:37;99731.66;;;3.57;74.46
74960;BME280;63518;49.572;1.106;2022-12-05T03:11:09;99734.31;;;3.64;73.32
74960;BME280;63518;49.572;1.106;2022-12-05T03:13:45;99745.31;;;3.51;73.87
74960;BME280;63518;49.572;1.106;2022-12-05T03:16:25;99741.84;;;3.44;74.82
74960;BME280;63518;49.572;1.106;2022-12-05T03:19:16;99737.47;;;3.43;75.34
74960;BME280;63518;49.572;1.106;2022-12-05T03:24:35;99751.75;;;3.56;74.01
74960;BME280;63518;49.572;1.106;2022-12-05T03:27:39;99762.00;;;3.73;74.16
74960;BME280;63518;49.572;1.106;2022-12-05T03:30:16;99750.13;;;3.12;74.76
74960;BME280;63518;49.572;1.106;2022-12-05T03:33:28;99761.09;;;2.99;75.58
74960;BME280;63518;49.572;1.106;2022-12-05T03:41:29;99758.16;;;3.25;74.76
74960;BME280;63518;49.572;1.106;2022-12-05T03:46:45;99758.91;;;3.32;74.39
74960;BME280;63518;49.572;1.106;2022-12-05T03:49:33;99753.91;;;3.11;75.33
74960;BME280;63518;49.572;1.106;2022-12-05T03:52:12;99756.50;;;3.43;74.43
74960;BME280;63518;49.572;1.106;2022-12-05T03:54:51;99747.50;;;3.60;73.87
74960;BME280;63518;49.572;1.106;2022-12-05T03:57:23;99740.78;;;4.11;72.21
74960;BME280;63518;49.572;1.106;2022-12-05T04:00:02;99753.31;;;3.82;71.86
74960;BME280;63518;49.572;1.106;2022-12-05T04:03:10;99743.91;;;3.48;73.30
74960;BME280;63518;49.572;1.106;2022-12-05T04:05:51;99744.69;;;3.12;75.30
74960;BME280;63518;49.572;1.106;2022-12-05T04:08:26;99742.44;;;3.27;74.20
74960;BME280;63518;49.572;1.106;2022-12-05T04:11:00;99744.63;;;3.37;73.62
74960;BME280;63518;49.572;1.106;2022-12-05T04:13:41;99744.28;;;3.33;74.34
74960;BME280;63518;49.572;1.106;2022-12-05T04:16:24;99743.56;;;3.38;74.13
74960;BME280;63518;49.572;1.106;2022-12-05T04:19:54;99740.94;;;3.68;73.92
74960;BME280;63518;49.572;1.106;2022-12-05T04:22:48;99759.50;;;3.53;72.66
74960;BME280;63518;49.572;1.106;2022-12-05T04:25:19;99764.50;;;3.38;74.42
74960;BME280;63518;49.572;1.106;2022-12-05T04:28:31;99755.19;;;3.27;74.43
74960;BME280;63518;49.572;1.106;2022-12-05T04:31:10;99760.88;;;3.62;74.00
74960;BME280;63518;49.572;1.106;2022-12-05T04:33:44;99766.38;;;3.37;73.78
74960;BME280;63518;49.572;1.106;2022-12-05T04:36:35;99762.09;;;3.48;73.87
74960;BME280;63518;49.572;1.106;2022-12-05T04:41:56;99768.66;;;2.97;75.86
74960;BME280;63518;49.572;1.106;2022-12-05T04:44:28;99759.22;;;2.99;74.71
74960;BME280;63518;49.572;1.106;2022-12-05T04:46:59;99768.59;;;3.03;74.97
74960;BME280;63518;49.572;1.106;2022-12-05T04:49:31;99756.69;;;3.04;74.20
74960;BME280;63518;49.572;1.106;2022-12-05T04:52:10;99763.44;;;3.39;75.18
74960;BME280;63518;49.572;1.106;2022-12-05T04:54:49;99778.31;;;3.73;73.38
74960;BME280;63518;49.572;1.106;2022-12-05T04:57:25;99764.28;;;3.57;72.87
74960;BME280;63518;49.572;1.106;2022-12-05T04:59:56;99769.19;;;3.67;72.59
74960;BME280;63518;49.572;1.106;2022-12-05T05:02:32;99772.03;;;3.54;72.27
74960;BME280;63518;49.572;1.106;2022-12-05T05:05:00;99792.97;;;3.53;72.54
74960;BME280;63518;49.572;1.106;2022-12-05T05:07:50;99777.47;;;3.35;73.76
74960;BME280;63518;49.572;1.106;2022-12-05T05:10:38;99791.66;;;3.19;73.37
74960;BME280;63518;49.572;1.106;2022-12-05T05:13:08;99788.06;;;3.80;72.23
74960;BME280;63518;49.572;1.106;2022-12-05T05:15:43;99794.00;;;3.34;74.28
74960;BME280;63518;49.572;1.106;2022-12-05T05:18:27;99792.06;;;3.41;71.93
74960;BME280;63518;49.572;1.106;2022-12-05T05:20:59;99789.13;;;3.61;72.65
74960;BME280;63518;49.572;1.106;2022-12-05T05:23:37;99801.06;;;3.60;72.22
74960;BME280;63518;49.572;1.106;2022-12-05T05:26:07;99799.91;;;3.49;73.33
74960;BME280;63518;49.572;1.106;2022-12-05T05:28:34;99808.31;;;3.48;73.03
74960;BME280;63518;49.572;1.106;2022-12-05T05:31:08;99788.38;;;3.72;72.90
74960;BME280;63518;49.572;1.106;2022-12-05T05:33:39;99812.31;;;3.63;71.80
74960;BME280;63518;49.572;1.106;2022-12-05T05:36:10;99793.13;;;3.40;72.61
74960;BME280;63518;49.572;1.106;2022-12-05T05:38:44;99818.91;;;3.06;74.56
74960;BME280;63518;49.572;1.106;2022-12-05T05:41:15;99806.94;;;3.57;73.41
74960;BME280;63518;49.572;1.106;2022-12-05T05:43:48;99804.28;;;3.50;72.35
74960;BME280;63518;49.572;1.106;2022-12-05T05:46:18;99807.00;;;3.50;73.20
74960;BME280;63518;49.572;1.106;2022-12-05T05:48:46;99809.78;;;3.44;72.96
74960;BME280;63518;49.572;1.106;2022-12-05T05:51:15;99823.41;;;3.62;72.64
74960;BME280;63518;49.572;1.106;2022-12-05T05:53:58;99827.78;;;3.63;71.92
74960;BME280;63518;49.572;1.106;2022-12-05T05:56:26;99825.34;;;3.55;72.39
74960;BME280;63518;49.572;1.106;2022-12-05T05:59:04;99837.09;;;3.30;73.34
74960;BME280;63518;49.572;1.106;2022-12-05T06:01:33;99822.13;;;3.21;73.56
74960;BME280;63518;49.572;1.106;2022-12-05T06:04:03;99814.03;;;3.15;73.70
74960;BME280;63518;49.572;1.106;2022-12-05T06:06:33;99846.13;;;2.99;74.63
74960;BME280;63518;49.572;1.106;2022-12-05T06:09:00;99852.63;;;3.23;74.33
74960;BME280;63518;49.572;1.106;2022-12-05T06:11:30;99828.56;;;3.27;74.30
74960;BME280;63518;49.572;1.106;2022-12-05T06:14:00;99842.03;;;3.15;73.53
74960;BME280;63518;49.572;1.106;2022-12-05T06:16:32;99839.78;;;3.12;74.41
74960;BME280;63518;49.572;1.106;2022-12-05T06:19:05;99844.06;;;3.45;73.79
74960;BME280;63518;49.572;1.106;2022-12-05T06:21:32;99854.75;;;3.64;73.25
74960;BME280;63518;49.572;1.106;2022-12-05T06:23:59;99846.34;;;4.03;72.12
74960;BME280;63518;49.572;1.106;2022-12-05T06:26:26;99836.50;;;3.72;74.68
74960;BME280;63518;49.572;1.106;2022-12-05T06:28:53;99848.09;;;3.79;74.12
74960;BME280;63518;49.572;1.106;2022-12-05T06:31:22;99856.41;;;4.02;73.95
74960;BME280;63518;49.572;1.106;2022-12-05T06:33:54;99858.31;;;4.02;73.65
74960;BME280;63518;49.572;1.106;2022-12-05T06:36:26;99858.16;;;4.15;70.61
74960;BME280;63518;49.572;1.106;2022-12-05T06:39:00;99858.13;;;4.33;70.28
74960;BME280;63518;49.572;1.106;2022-12-05T06:41:33;99841.44;;;4.30;70.55
74960;BME280;63518;49.572;1.106;2022-12-05T06:44:10;99856.72;;;4.12;69.48
74960;BME280;63518;49.572;1.106;2022-12-05T06:46:42;99864.50;;;3.72;70.61
74960;BME280;63518;49.572;1.106;2022-12-05T06:49:09;99858.13;;;3.60;71.60
74960;BME280;63518;49.572;1.106;2022-12-05T06:51:36;99860.72;;;4.10;70.96
74960;BME280;63518;49.572;1.106;2022-12-05T06:54:07;99870.78;;;3.73;71.03
74960;BME280;63518;49.572;1.106;2022-12-05T06:56:34;99860.38;;;3.45;72.56
74960;BME280;63518;49.572;1.106;2022-12-05T06:59:01;99864.41;;;3.60;72.41
74960;BME280;63518;49.572;1.106;2022-12-05T07:01:34;99861.97;;;3.96;71.17
74960;BME280;63518;49.572;1.106;2022-12-05T07:04:13;99885.97;;;3.99;70.68
74960;BME280;63518;49.572;1.106;2022-12-05T07:06:44;99880.84;;;4.27;72.20
74960;BME280;63518;49.572;1.106;2022-12-05T07:09:21;99877.81;;;4.35;70.55
74960;BME280;63518;49.572;1.106;2022-12-05T07:11:51;99879.09;;;4.14;70.01
74960;BME280;63518;49.572;1.106;2022-12-05T07:14:18;99877.97;;;3.42;72.42
74960;BME280;63518;49.572;1.106;2022-12-05T07:17:11;99893.59;;;3.22;73.21
74960;BME280;63518;49.572;1.106;2022-12-05T07:19:40;99887.56;;;3.20;73.03
74960;BME280;63518;49.572;1.106;2022-12-05T07:22:07;99888.34;;;3.70;72.39
74960;BME280;63518;49.572;1.106;2022-12-05T07:24:43;99876.84;;;3.50;71.60
74960;BME280;63518;49.572;1.106;2022-12-05T07:27:14;99890.84;;;3.28;73.79
74960;BME280;63518;49.572;1.106;2022-12-05T07:29:46;99876.72;;;2.88;75.35
74960;BME280;63518;49.572;1.106;2022-12-05T07:32:13;99901.31;;;3.25;74.61
74960;BME280;63518;49.572;1.106;2022-12-05T07:34:49;99904.03;;;3.25;74.28
74960;BME280;63518;49.572;1.106;2022-12-05T07:37:24;99898.84;;;3.48;72.71
74960;BME280;63518;49.572;1.106;2022-12-05T07:39:52;99908.38;;;3.57;72.35
74960;BME280;63518;49.572;1.106;2022-12-05T07:42:24;99904.75;;;3.14;73.86
74960;BME280;63518;49.572;1.106;2022-12-05T07:44:52;99909.84;;;3.28;75.45
74960;BME280;63518;49.572;1.106;2022-12-05T07:47:21;99899.81;;;2.72;75.21
74960;BME280;63518;49.572;1.106;2022-12-05T07:49:54;99903.31;;;3.11;74.60
74960;BME280;63518;49.572;1.106;2022-12-05T07:52:31;99914.91;;;2.62;76.00
74960;BME280;63518;49.572;1.106;2022-12-05T07:55:00;99903.31;;;2.79;75.96
74960;BME280;63518;49.572;1.106;2022-12-05T07:57:29;99910.31;;;2.62;75.47
74960;BME280;63518;49.572;1.106;2022-12-05T07:59:56;99917.69;;;2.87;76.26
74960;BME280;63518;49.572;1.106;2022-12-05T08:02:31;99917.41;;;2.63;77.79
74960;BME280;63518;49.572;1.106;2022-12-05T08:05:00;99909.53;;;2.48;77.61
74960;BME280;63518;49.572;1.106;2022-12-05T08:07:41;99904.69;;;2.06;78.28
74960;BME280;63518;49.572;1.106;2022-12-05T08:10:15;99933.09;;;2.55;77.38
74960;BME280;63518;49.572;1.106;2022-12-05T08:12:58;99923.59;;;2.32;77.76
74960;BME280;63518;49.572;1.106;2022-12-05T08:15:28;99927.34;;;2.76;76.80
74960;BME280;63518;49.572;1.106;2022-12-05T08:17:55;99940.34;;;2.99;77.41
74960;BME280;63518;49.572;1.106;2022-12-05T08:20:25;99939.34;;;2.55;76.87
74960;BME280;63518;49.572;1.106;2022-12-05T08:23:00;99931.78;;;2.70;77.16
74960;BME280;63518;49.572;1.106;2022-12-05T08:25:32;99944.22;;;2.40;78.74
74960;BME280;63518;49.572;1.106;2022-12-05T08:28:04;99928.59;;;2.29;77.49
74960;BME280;63518;49.572;1.106;2022-12-05T08:30:32;99934.63;;;2.37;78.58
74960;BME280;63518;49.572;1.106;2022-12-05T08:33:02;99947.38;;;2.75;77.09
74960;BME280;63518;49.572;1.106;2022-12-05T08:35:31;99939.47;;;2.73;77.57
74960;BME280;63518;49.572;1.106;2022-12-05T08:37:58;99951.09;;;2.87;76.47
74960;BME280;63518;49.572;1.106;2022-12-05T08:40:26;99956.13;;;2.39;77.40
74960;BME280;63518;49.572;1.106;2022-12-05T08:42:54;99952.00;;;2.68;77.11
74960;BME280;63518;49.572;1.106;2022-12-05T08:45:21;99956.88;;;2.97;76.13
74960;BME280;63518;49.572;1.106;2022-12-05T08:47:48;99949.59;;;2.53;76.55
74960;BME280;63518;49.572;1.106;2022-12-05T08:50:15;99953.25;;;2.72;77.14
74960;BME280;63518;49.572;1.106;2022-12-05T08:52:46;99961.94;;;3.25;75.46
74960;BME280;63518;49.572;1.106;2022-12-05T08:55:13;99974.84;;;2.98;75.11
74960;BME280;63518;49.572;1.106;2022-12-05T08:57:55;99969.28;;;2.87;76.12
74960;BME280;63518;49.572;1.106;2022-12-05T09:00:33;99965.34;;;2.76;75.53
74960;BME280;63518;49.572;1.106;2022-12-05T09:03:00;99973.34;;;2.64;76.13
74960;BME280;63518;49.572;1.106;2022-12-05T09:05:35;99970.50;;;2.46;76.49
74960;BME280;63518;49.572;1.106;2022-12-05T09:08:05;99978.31;;;2.74;77.56
74960;BME280;63518;49.572;1.106;2022-12-05T09:10:36;99987.69;;;2.78;76.10
74960;BME280;63518;49.572;1.106;2022-12-05T09:13:09;99990.72;;;3.01;76.26
74960;BME280;63518;49.572;1.106;2022-12-05T09:15:39;99993.63;;;2.62;76.23
74960;BME280;63518;49.572;1.106;2022-12-05T09:18:18;99991.56;;;2.50;76.43
74960;BME280;63518;49.572;1.106;2022-12-05T09:20:48;99987.66;;;2.27;76.52
74960;BME280;63518;49.572;1.106;2022-12-05T09:23:22;99981.19;;;2.28;77.83
74960;BME280;63518;49.572;1.106;2022-12-05T09:25:56;99980.34;;;2.34;78.17
74960;BME280;63518;49.572;1.106;2022-12-05T09:28:39;99997.59;;;2.52;78.19
74960;BME280;63518;49.572;1.106;2022-12-05T09:31:14;99994.19;;;2.77;76.72
74960;BME280;63518;49.572;1.106;2022-12-05T09:33:42;99983.84;;;2.92;76.23
74960;BME280;63518;49.572;1.106;2022-12-05T09:38:47;99990.25;;;2.60;77.34
74960;BME280;63518;49.572;1.106;2022-12-05T09:41:43;100011.56;;;2.63;77.03
74960;BME280;63518;49.572;1.106;2022-12-05T09:50:03;100011.91;;;2.79;76.38
74960;BME280;63518;49.572;1.106;2022-12-05T09:53:08;100009.41;;;2.85;75.90
74960;BME280;63518;49.572;1.106;2022-12-05T10:10:45;100017.66;;;3.66;74.31
74960;BME280;63518;49.572;1.106;2022-12-05T10:13:47;100017.16;;;3.51;74.38
74960;BME280;63518;49.572;1.106;2022-12-05T10:16:38;100002.47;;;4.27;73.14
74960;BME280;63518;49.572;1.106;2022-12-05T10:19:34;100017.66;;;3.91;74.58
74960;BME280;63518;49.572;1.106;2022-12-05T10:25:00;99990.94;;;4.06;73.46
74960;BME280;63518;49.572;1.106;2022-12-05T10:27:48;100005.19;;;4.63;71.74
74960;BME280;63518;49.572;1.106;2022-12-05T10:30:23;99986.22;;;4.75;70.31
74960;BME280;63518;49.572;1.106;2022-12-05T10:38:02;99980.16;;;5.21;70.26
74960;BME280;63518;49.572;1.106;2022-12-05T10:40:37;99988.59;;;4.10;73.17
74960;BME280;63518;49.572;1.106;2022-12-05T10:43:15;100008.28;;;3.87;74.12
74960;BME280;63518;49.572;1.106;2022-12-05T10:45:45;99978.22;;;4.43;72.58
74960;BME280;63518;49.572;1.106;2022-12-05T10:48:17;99993.88;;;4.66;71.79
74960;BME280;63518;49.572;1.106;2022-12-05T10:50:51;99994.69;;;4.48;72.60
74960;BME280;63518;49.572;1.106;2022-12-05T10:53:31;99997.31;;;4.73;70.71
74960;BME280;63518;49.572;1.106;2022-12-05T10:59:16;99998.25;;;5.16;71.50
74960;BME280;63518;49.572;1.106;2022-12-05T11:01:56;99997.94;;;5.36;70.55
74960;BME280;63518;49.572;1.106;2022-12-05T11:04:45;100008.69;;;5.19;71.59
74960;BME280;63518;49.572;1.106;2022-12-05T11:09:58;99993.69;;;4.98;71.47
74960;BME280;63518;49.572;1.106;2022-12-05T11:12:37;99998.81;;;5.06;71.30
74960;BME280;63518;49.572;1.106;2022-12-05T11:17:56;99987.38;;;4.97;72.12
74960;BME280;63518;49.572;1.106;2022-12-05T11:20:32;99996.84;;;5.25;71.69
74960;BME280;63518;49.572;1.106;2022-12-05T11:23:28;99984.03;;;4.95;71.08
74960;BME280;63518;49.572;1.106;2022-12-05T11:25:58;99980.25;;;4.96;70.16
74960;BME280;63518;49.572;1.106;2022-12-05T11:28:35;99984.16;;;4.70;71.85
74960;BME280;63518;49.572;1.106;2022-12-05T11:31:27;99970.50;;;4.59;72.69
74960;BME280;63518;49.572;1.106;2022-12-05T11:34:20;99987.09;;;5.17;71.77
74960;BME280;63518;49.572;1.106;2022-12-05T11:37:43;99973.22;;;5.07;71.43
74960;BME280;63518;49.572;1.106;2022-12-05T11:40:14;99957.63;;;4.96;71.17
74960;BME280;63518;49.572;1.106;2022-12-05T11:48:33;99975.91;;;4.77;72.63
74960;BME280;63518;49.572;1.106;2022-12-05T11:56:42;99981.91;;;5.69;68.88
74960;BME280;63518;49.572;1.106;2022-12-05T12:05:37;99980.09;;;4.61;72.96
74960;BME280;63518;49.572;1.106;2022-12-05T12:08:11;99985.47;;;5.28;69.46
74960;BME280;63518;49.572;1.106;2022-12-05T12:16:22;99968.94;;;5.11;70.81
74960;BME280;63518;49.572;1.106;2022-12-05T12:28:01;99984.56;;;4.74;72.71
74960;BME280;63518;49.572;1.106;2022-12-05T12:34:03;99981.91;;;5.69;68.87
74960;BME280;63518;49.572;1.106;2022-12-05T12:39:33;99980.41;;;5.31;70.33
74960;BME280;63518;49.572;1.106;2022-12-05T12:42:20;99984.03;;;5.67;69.19
74960;BME280;63518;49.572;1.106;2022-12-05T13:02:21;99959.75;;;5.89;68.45
74960;BME280;63518;49.572;1.106;2022-12-05T13:05:00;99955.53;;;5.40;68.93
74960;BME280;63518;49.572;1.106;2022-12-05T13:07:46;99961.53;;;6.07;67.56
74960;BME280;63518;49.572;1.106;2022-12-05T13:10:27;99958.59;;;6.08;68.63
74960;BME280;63518;49.572;1.106;2022-12-05T13:13:21;99937.31;;;6.34;67.16
74960;BME280;63518;49.572;1.106;2022-12-05T13:15:56;99953.47;;;5.77;68.64
74960;BME280;63518;49.572;1.106;2022-12-05T13:18:45;99950.16;;;5.98;68.27
74960;BME280;63518;49.572;1.106;2022-12-05T13:21:13;99954.50;;;5.76;66.65
74960;BME280;63518;49.572;1.106;2022-12-05T13:23:48;99958.53;;;5.62;67.91
74960;BME280;63518;49.572;1.106;2022-12-05T13:26:19;99967.94;;;5.89;67.32
74960;BME280;63518;49.572;1.106;2022-12-05T13:28:52;99965.34;;;6.06;66.93
74960;BME280;63518;49.572;1.106;2022-12-05T13:31:39;99949.19;;;5.81;67.54
74960;BME280;63518;49.572;1.106;2022-12-05T13:36:57;99958.25;;;6.17;67.15
74960;BME280;63518;49.572;1.106;2022-12-05T13:39:52;99954.06;;;6.14;66.71
74960;BME280;63518;49.572;1.106;2022-12-05T13:42:39;99967.00;;;5.95;68.58
74960;BME280;63518;49.572;1.106;2022-12-05T13:45:09;99954.09;;;6.02;65.93
74960;BME280;63518;49.572;1.106;2022-12-05T13:58:53;99977.56;;;6.79;65.82
74960;BME280;63518;49.572;1.106;2022-12-05T14:01:40;99975.22;;;6.70;63.62
74960;BME280;63518;49.572;1.106;2022-12-05T14:04:47;99978.56;;;6.72;64.60
74960;BME280;63518;49.572;1.106;2022-12-05T14:07:39;99975.38;;;6.52;64.85
74960;BME280;63518;49.572;1.106;2022-12-05T14:10:11;99964.66;;;6.74;65.84
74960;BME280;63518;49.572;1.106;2022-12-05T14:12:58;99976.03;;;6.71;64.79
74960;BME280;63518;49.572;1.106;2022-12-05T14:15:33;99970.50;;;6.94;66.93
74960;BME280;63518;49.572;1.106;2022-12-05T14:21:08;99961.66;;;6.35;65.37
74960;BME280;63518;49.572;1.106;2022-12-05T14:34:54;99967.59;;;5.97;66.03
74960;BME280;63518;49.572;1.106;2022-12-05T14:40:02;99960.09;;;6.28;66.47
74960;BME280;63518;49.572;1.106;2022-12-05T14:43:02;99967.84;;;6.19;64.92
74960;BME280;63518;49.572;1.106;2022-12-05T14:48:01;99974.34;;;6.41;67.29
74960;BME280;63518;49.572;1.106;2022-12-05T14:53:39;99982.81;;;5.93;66.94
74960;BME280;63518;49.572;1.106;2022-12-05T14:56:13;99989.81;;;5.59;68.97
74960;BME280;63518;49.572;1.106;2022-12-05T14:58:49;99989.22;;;5.45;66.56
74960;BME280;63518;49.572;1.106;2022-12-05T15:04:17;99995.09;;;5.30;68.63
74960;BME280;63518;49.572;1.106;2022-12-05T15:12:19;99999.41;;;6.03;69.85
74960;BME280;63518;49.572;1.106;2022-12-05T15:14:55;99996.16;;;5.71;71.98
74960;BME280;63518;49.572;1.106;2022-12-05T15:20:18;99995.19;;;5.66;71.12
74960;BME280;63518;49.572;1.106;2022-12-05T15:22:52;100003.16;;;5.79;70.08
74960;BME280;63518;49.572;1.106;2022-12-05T15:25:28;100006.47;;;5.81;71.42
74960;BME280;63518;49.572;1.106;2022-12-05T15:28:17;100002.53;;;5.65;67.91
74960;BME280;63518;49.572;1.106;2022-12-05T15:30:55;100023.09;;;5.38;69.72
74960;BME280;63518;49.572;1.106;2022-12-05T15:33:27;100017.59;;;5.68;71.73
74960;BME280;63518;49.572;1.106;2022-12-05T15:35:55;100015.72;;;5.80;72.24
74960;BME280;63518;49.572;1.106;2022-12-05T15:38:28;100015.38;;;5.88;70.18
74960;BME280;63518;49.572;1.106;2022-12-05T15:40:56;100033.25;;;6.02;70.74
74960;BME280;63518;49.572;1.106;2022-12-05T15:43:32;100037.25;;;6.23;70.16
74960;BME280;63518;49.572;1.106;2022-12-05T15:46:20;100030.03;;;5.94;65.79
74960;BME280;63518;49.572;1.106;2022-12-05T15:49:15;100007.09;;;5.41;66.33
74960;BME280;63518;49.572;1.106;2022-12-05T15:51:55;100022.00;;;5.80;69.92
74960;BME280;63518;49.572;1.106;2022-12-05T15:54:28;100033.13;;;6.09;71.05
74960;BME280;63518;49.572;1.106;2022-12-05T15:57:07;100033.94;;;6.21;69.76
74960;BME280;63518;49.572;1.106;2022-12-05T15:59:45;100015.94;;;6.08;70.86
74960;BME280;63518;49.572;1.106;2022-12-05T16:02:57;100040.25;;;6.22;69.91
74960;BME280;63518;49.572;1.106;2022-12-05T16:08:10;100033.41;;;5.89;72.94
74960;BME280;63518;49.572;1.106;2022-12-05T16:10:37;100030.59;;;6.07;70.67
74960;BME280;63518;49.572;1.106;2022-12-05T16:13:14;100025.78;;;6.09;71.82
74960;BME280;63518;49.572;1.106;2022-12-05T16:15:49;100050.44;;;6.38;69.48
74960;BME280;63518;49.572;1.106;2022-12-05T16:18:27;100034.91;;;6.27;67.85
74960;BME280;63518;49.572;1.106;2022-12-05T16:20:55;100057.69;;;6.44;68.67
74960;BME280;63518;49.572;1.106;2022-12-05T16:23:34;100038.25;;;6.40;68.51
74960;BME280;63518;49.572;1.106;2022-12-05T16:26:20;100054.25;;;6.37;69.80
74960;BME280;63518;49.572;1.106;2022-12-05T16:28:58;100050.56;;;6.20;71.03
74960;BME280;63518;49.572;1.106;2022-12-05T16:31:31;100036.53;;;6.16;69.79
74960;BME280;63518;49.572;1.106;2022-12-05T16:34:06;100047.00;;;6.42;69.43
74960;BME280;63518;49.572;1.106;2022-12-05T16:36:36;100049.28;;;6.34;69.07
74960;BME280;63518;49.572;1.106;2022-12-05T16:39:15;100048.91;;;6.30;70.23
74960;BME280;63518;49.572;1.106;2022-12-05T16:41:46;100038.47;;;6.04;71.40
74960;BME280;63518;49.572;1.106;2022-12-05T16:44:58;100054.72;;;6.22;70.40
74960;BME280;63518;49.572;1.106;2022-12-05T16:50:28;100056.00;;;6.08;71.72
74960;BME280;63518;49.572;1.106;2022-12-05T16:53:16;100055.19;;;6.07;71.52
74960;BME280;63518;49.572;1.106;2022-12-05T16:55:48;100046.53;;;6.10;70.63
74960;BME280;63518;49.572;1.106;2022-12-05T16:58:48;100061.38;;;5.84;68.70
74960;BME280;63518;49.572;1.106;2022-12-05T17:01:20;100057.91;;;5.66;68.03